Time;durP1;ratioP1;P1;durP2;ratioP2;P2;SDS_P1;SDS_P2;PMS_P1;PMS_P2;Temp;Humidity;BMP_temperature;BMP_pressure;BME280_temperature;BME280_humidity;BME280_pressure;Samples;Min_cycle;Max_cycle;Signal;HPM_P1;HPM_P2
2022/06/12 00:00:20;;;;;;;;;;;;;;;13.95;47.47;96162.59;5063939;28;19960;-62
2022/06/12 00:02:45;;;;;;;;;;;;;;;14.16;47.02;96164.50;5028227;28;19962;-62
2022/06/12 00:05:11;;;;;;;;;;;;;;;14.16;46.83;96164.50;5061743;28;20458;-62
2022/06/12 00:07:37;;;;;;;;;;;;;;;14.27;46.63;96167.69;5057171;28;20502;-62
2022/06/12 00:10:02;;;;;;;;;;;;;;;14.34;46.34;96161.41;5057499;28;20110;-63
2022/06/12 00:12:27;;;;;;;;;;;;;;;14.39;46.20;96160.00;5050945;28;20471;-64
2022/06/12 00:14:55;;;;;;;;;;;;;;;14.32;46.10;96163.44;5064236;28;20320;-64
2022/06/12 00:17:20;;;;;;;;;;;;;;;14.41;45.77;96158.81;5064354;28;20005;-63
2022/06/12 00:19:47;;;;;;;;;;;;;;;14.53;45.60;96160.97;5064718;28;19965;-64
2022/06/12 00:22:13;;;;;;;;;;;;;;;14.40;45.85;96150.94;5061229;28;20046;-64
2022/06/12 00:24:38;;;;;;;;;;;;;;;14.40;45.64;96151.78;5051444;28;20364;-64
2022/06/12 00:27:04;;;;;;;;;;;;;;;14.42;45.53;96148.94;5064961;28;20051;-63
2022/06/12 00:29:30;;;;;;;;;;;;;;;14.28;45.88;96156.00;5064689;28;19985;-64
2022/06/12 00:31:57;;;;;;;;;;;;;;;14.31;45.82;96156.44;5065145;28;19975;-63
2022/06/12 00:34:23;;;;;;;;;;;;;;;14.27;45.98;96146.28;5064170;28;20002;-62
2022/06/12 00:36:48;;;;;;;;;;;;;;;14.21;45.94;96146.03;5052135;28;20136;-62
2022/06/12 00:39:13;;;;;;;;;;;;;;;14.25;45.79;96142.97;5064977;28;20478;-63
2022/06/12 00:41:38;;;;;;;;;;;;;;;14.37;45.32;96138.78;5064874;28;19994;-62
2022/06/12 00:44:04;;;;;;;;;;;;;;;14.38;45.41;96144.97;5064233;28;19957;-63
2022/06/12 00:46:58;;;;;;;;;;;;;;;14.38;45.25;96140.41;5052424;28;19962;-62
2022/06/12 00:49:27;;;;;;;;;;;;;;;14.64;44.64;96147.09;5051613;28;19981;-64
2022/06/12 00:51:55;;;;;;;;;;;;;;;14.76;44.13;96143.94;5047413;28;19980;-62
2022/06/12 00:54:20;;;;;;;;;;;;;;;14.38;44.87;96153.81;5065839;28;19985;-61
2022/06/12 00:56:49;;;;;;;;;;;;;;;14.38;44.94;96148.47;5053307;28;20329;-61
2022/06/12 00:59:32;;;;;;;;;;;;;;;14.39;45.23;96150.13;5046829;28;19970;-63
2022/06/12 01:01:57;;;;;;;;;;;;;;;14.44;44.75;96157.59;5064282;28;20418;-62
2022/06/12 01:07:08;;;;;;;;;;;;;;;14.44;44.46;96149.56;5060031;28;20453;-63
2022/06/12 01:09:38;;;;;;;;;;;;;;;14.30;44.81;96154.78;5062346;28;20070;-63
2022/06/12 01:12:04;;;;;;;;;;;;;;;14.45;44.79;96146.69;5063531;28;20335;-63
2022/06/12 01:14:31;;;;;;;;;;;;;;;14.34;44.48;96140.00;5065027;28;19958;-63
2022/06/12 01:16:57;;;;;;;;;;;;;;;14.28;44.76;96143.41;5067838;28;19974;-62
2022/06/12 01:19:28;;;;;;;;;;;;;;;14.29;44.74;96141.56;5042272;28;20230;-64
2022/06/12 01:21:59;;;;;;;;;;;;;;;14.38;44.85;96137.75;5045647;28;20366;-63
2022/06/12 01:24:29;;;;;;;;;;;;;;;14.25;45.02;96145.66;5078933;28;20533;-64
2022/06/12 01:27:02;;;;;;;;;;;;;;;14.49;44.65;96140.94;5062466;28;19960;-62
2022/06/12 01:29:33;;;;;;;;;;;;;;;14.00;45.15;96140.63;5076899;28;19991;-64
2022/06/12 01:32:08;;;;;;;;;;;;;;;13.93;45.52;96154.75;5063161;28;20167;-64
2022/06/12 01:34:43;;;;;;;;;;;;;;;14.25;45.20;96140.28;5061752;28;19983;-63
2022/06/12 01:37:11;;;;;;;;;;;;;;;14.62;43.87;96140.25;5051251;28;20245;-63
2022/06/12 01:39:41;;;;;;;;;;;;;;;14.37;43.93;96130.75;5049427;28;19961;-63
2022/06/12 01:42:15;;;;;;;;;;;;;;;14.46;43.85;96124.22;5051380;28;20008;-63
2022/06/12 01:44:40;;;;;;;;;;;;;;;14.43;43.83;96126.47;5061991;28;19976;-63
2022/06/12 01:47:10;;;;;;;;;;;;;;;14.49;43.67;96119.53;5063287;28;19958;-65
2022/06/12 01:49:56;;;;;;;;;;;;;;;14.58;43.11;96129.91;5060329;28;19982;-64
2022/06/12 01:52:42;;;;;;;;;;;;;;;14.61;43.05;96130.56;5061642;28;19984;-64
2022/06/12 01:55:15;;;;;;;;;;;;;;;14.62;42.54;96133.03;5048557;28;20064;-63
2022/06/12 01:57:45;;;;;;;;;;;;;;;14.54;42.59;96134.00;5045322;28;19990;-64
2022/06/12 02:00:14;;;;;;;;;;;;;;;14.50;42.38;96123.84;5066032;28;20013;-62
2022/06/12 02:02:59;;;;;;;;;;;;;;;14.39;42.55;96127.88;5082425;28;19965;-63
2022/06/12 02:05:37;;;;;;;;;;;;;;;14.29;42.32;96125.50;5069875;28;19985;-64
2022/06/12 02:08:22;;;;;;;;;;;;;;;14.28;42.62;96134.56;5054716;28;19958;-64
2022/06/12 02:10:49;;;;;;;;;;;;;;;14.37;42.47;96133.41;5049655;28;20500;-63
2022/06/12 02:13:29;;;;;;;;;;;;;;;14.47;42.47;96143.81;5036835;28;19977;-62
2022/06/12 02:16:14;;;;;;;;;;;;;;;14.43;42.43;96135.34;5060248;28;19955;-63
2022/06/12 02:18:41;;;;;;;;;;;;;;;14.36;42.53;96138.97;5072133;28;20305;-64
2022/06/12 02:21:25;;;;;;;;;;;;;;;14.37;42.54;96130.75;5064956;28;19993;-64
2022/06/12 02:24:04;;;;;;;;;;;;;;;13.99;43.26;96133.59;5056513;28;19991;-63
2022/06/12 02:26:31;;;;;;;;;;;;;;;13.88;43.96;96138.44;5039270;28;20103;-65
2022/06/12 02:28:58;;;;;;;;;;;;;;;13.72;45.64;96133.22;5081752;28;20000;-63
2022/06/12 02:31:24;;;;;;;;;;;;;;;14.10;44.48;96125.09;5063707;28;19976;-62
2022/06/12 02:33:52;;;;;;;;;;;;;;;14.40;42.81;96121.50;5062326;28;19982;-62
2022/06/12 02:36:18;;;;;;;;;;;;;;;14.50;42.75;96130.06;5075451;28;20079;-63
2022/06/12 02:39:02;;;;;;;;;;;;;;;14.49;43.01;96132.91;5063504;28;20095;-63
2022/06/12 02:41:29;;;;;;;;;;;;;;;14.18;43.97;96137.53;5065094;28;20482;-64
2022/06/12 02:43:55;;;;;;;;;;;;;;;13.52;46.88;96139.97;5059350;28;20232;-63
2022/06/12 02:46:25;;;;;;;;;;;;;;;13.39;47.50;96135.25;5065390;28;20142;-64
2022/06/12 02:48:50;;;;;;;;;;;;;;;13.41;47.66;96141.25;5033504;28;20108;-63
2022/06/12 02:51:34;;;;;;;;;;;;;;;13.42;47.76;96142.06;5062329;28;20457;-63
2022/06/12 02:54:05;;;;;;;;;;;;;;;13.78;46.83;96137.84;5061959;28;20032;-63
2022/06/12 02:56:37;;;;;;;;;;;;;;;13.95;46.15;96133.16;5080488;28;20523;-64
2022/06/12 02:59:14;;;;;;;;;;;;;;;14.08;45.81;96132.50;5080932;28;20015;-65
2022/06/12 03:01:45;;;;;;;;;;;;;;;14.25;44.94;96125.06;5037688;28;19985;-64
2022/06/12 03:04:12;;;;;;;;;;;;;;;14.28;43.70;96126.53;5076832;28;19966;-63
2022/06/12 03:06:38;;;;;;;;;;;;;;;14.12;43.71;96131.09;5056993;28;19959;-64
2022/06/12 03:09:03;;;;;;;;;;;;;;;13.99;43.89;96134.44;5073294;28;20050;-64
2022/06/12 03:11:39;;;;;;;;;;;;;;;13.98;43.66;96139.97;5078963;28;20448;-64
2022/06/12 03:14:08;;;;;;;;;;;;;;;13.93;43.67;96144.03;5036889;28;19982;-64
2022/06/12 03:16:36;;;;;;;;;;;;;;;13.88;43.76;96150.94;5061238;28;20451;-64
2022/06/12 03:19:07;;;;;;;;;;;;;;;13.90;43.63;96140.91;5066806;28;20422;-63
2022/06/12 03:21:42;;;;;;;;;;;;;;;13.87;43.35;96139.38;5065291;28;19995;-64
2022/06/12 03:24:07;;;;;;;;;;;;;;;13.85;43.41;96148.63;5065524;28;19965;-63
2022/06/12 03:26:36;;;;;;;;;;;;;;;13.82;43.25;96144.47;5065815;28;19966;-64
2022/06/12 03:29:04;;;;;;;;;;;;;;;13.82;42.84;96150.69;5065824;28;19993;-63
2022/06/12 03:31:40;;;;;;;;;;;;;;;13.71;43.17;96151.13;5061483;28;20072;-63
2022/06/12 03:34:10;;;;;;;;;;;;;;;13.66;42.87;96146.34;5044000;28;19984;-64
2022/06/12 03:36:37;;;;;;;;;;;;;;;13.63;42.91;96146.69;5070005;28;19996;-64
2022/06/12 03:39:09;;;;;;;;;;;;;;;13.58;42.70;96154.44;5064882;28;19962;-65
2022/06/12 03:41:37;;;;;;;;;;;;;;;13.55;42.82;96144.13;5070853;28;19989;-64
2022/06/12 03:44:10;;;;;;;;;;;;;;;13.47;43.00;96154.91;5053720;28;20440;-66
2022/06/12 03:46:42;;;;;;;;;;;;;;;13.43;43.06;96159.81;5063887;28;20302;-65
2022/06/12 03:49:10;;;;;;;;;;;;;;;13.39;43.41;96161.16;5036083;28;19987;-65
2022/06/12 03:51:40;;;;;;;;;;;;;;;13.38;43.31;96155.00;5037467;28;20350;-64
2022/06/12 03:54:08;;;;;;;;;;;;;;;13.42;43.37;96156.28;5063250;28;19981;-64
2022/06/12 03:59:33;;;;;;;;;;;;;;;13.48;43.25;96160.06;5060728;28;20001;-65
2022/06/12 04:01:59;;;;;;;;;;;;;;;13.49;43.29;96160.91;5049190;28;19988;-64
2022/06/12 04:04:24;;;;;;;;;;;;;;;13.49;43.56;96161.72;5079538;28;20038;-64
2022/06/12 04:06:50;;;;;;;;;;;;;;;13.56;43.44;96159.97;5075651;28;19967;-63
2022/06/12 04:09:19;;;;;;;;;;;;;;;13.52;43.10;96153.34;5064658;28;19985;-63
2022/06/12 04:11:48;;;;;;;;;;;;;;;13.54;43.32;96158.50;5045412;28;20535;-63
2022/06/12 04:14:14;;;;;;;;;;;;;;;13.54;43.34;96158.50;5040374;28;20337;-62
2022/06/12 04:16:40;;;;;;;;;;;;;;;13.64;43.11;96159.09;5064610;28;19986;-64
2022/06/12 04:19:06;;;;;;;;;;;;;;;13.70;42.99;96158.31;5031631;28;19976;-64
2022/06/12 04:21:37;;;;;;;;;;;;;;;13.74;43.28;96158.81;5053833;28;20725;-62
2022/06/12 04:24:22;;;;;;;;;;;;;;;13.82;42.79;96152.50;5060938;28;19966;-62
2022/06/12 04:26:58;;;;;;;;;;;;;;;13.85;42.83;96162.84;5056922;28;20382;-64
2022/06/12 04:29:30;;;;;;;;;;;;;;;13.98;42.84;96156.03;5046033;28;20015;-62
2022/06/12 04:31:56;;;;;;;;;;;;;;;14.06;43.10;96156.75;5065406;28;20197;-63
2022/06/12 04:34:29;;;;;;;;;;;;;;;14.20;42.89;96156.91;5062902;28;20666;-62
2022/06/12 04:37:09;;;;;;;;;;;;;;;14.21;43.06;96150.53;5054207;28;20019;-62
2022/06/12 04:39:35;;;;;;;;;;;;;;;14.26;42.87;96147.28;5062138;28;19967;-64
2022/06/12 04:42:00;;;;;;;;;;;;;;;14.27;43.28;96165.00;5057090;28;20407;-63
2022/06/12 04:44:26;;;;;;;;;;;;;;;14.36;43.21;96152.34;5063588;28;19990;-64
2022/06/12 04:46:51;;;;;;;;;;;;;;;14.48;43.18;96150.81;5059548;28;19967;-63
2022/06/12 04:49:17;;;;;;;;;;;;;;;14.58;43.26;96153.19;5063490;28;19985;-64
2022/06/12 04:51:43;;;;;;;;;;;;;;;14.72;43.05;96156.84;5034276;28;19976;-62
2022/06/12 04:54:08;;;;;;;;;;;;;;;14.82;43.39;96160.06;5047017;28;20451;-63
2022/06/12 04:56:36;;;;;;;;;;;;;;;14.94;43.33;96157.72;5052363;28;19999;-63
2022/06/12 04:59:02;;;;;;;;;;;;;;;15.05;43.28;96163.56;5061149;28;20004;-62
2022/06/12 05:01:28;;;;;;;;;;;;;;;15.19;42.94;96151.91;5057227;28;20028;-63
2022/06/12 05:03:53;;;;;;;;;;;;;;;15.33;42.99;96157.41;5058359;28;20413;-62
2022/06/12 05:06:19;;;;;;;;;;;;;;;15.32;43.67;96159.25;5064933;28;19985;-63
2022/06/12 05:08:44;;;;;;;;;;;;;;;15.41;44.33;96165.28;5050532;28;20035;-62
2022/06/12 05:11:09;;;;;;;;;;;;;;;15.63;43.69;96169.81;5060228;28;20144;-62
2022/06/12 05:13:35;;;;;;;;;;;;;;;15.85;44.05;96160.63;5063286;28;20290;-63
2022/06/12 05:16:00;;;;;;;;;;;;;;;16.21;43.05;96161.41;5058767;28;19988;-62
2022/06/12 05:18:25;;;;;;;;;;;;;;;16.37;43.12;96160.25;5053772;28;20023;-62
2022/06/12 05:20:51;;;;;;;;;;;;;;;16.61;42.59;96159.91;5061702;28;19976;-62
2022/06/12 05:23:16;;;;;;;;;;;;;;;16.88;42.18;96162.63;5064006;28;20420;-62
2022/06/12 05:25:41;;;;;;;;;;;;;;;16.87;42.16;96169.03;5062563;28;20454;-62
2022/06/12 05:28:07;;;;;;;;;;;;;;;16.50;43.56;96169.38;5041887;28;20003;-63
2022/06/12 05:30:33;;;;;;;;;;;;;;;16.24;43.58;96177.13;5062250;28;20054;-62
2022/06/12 05:32:59;;;;;;;;;;;;;;;16.30;44.53;96180.03;5063598;28;19984;-62
2022/06/12 05:35:24;;;;;;;;;;;;;;;15.78;43.79;96169.69;5059336;28;20017;-63
2022/06/12 05:37:50;;;;;;;;;;;;;;;15.99;43.51;96168.75;5055391;28;20011;-62
2022/06/12 05:40:17;;;;;;;;;;;;;;;16.13;43.51;96169.63;5061142;28;20421;-61
2022/06/12 05:42:42;;;;;;;;;;;;;;;16.21;43.32;96172.16;5053859;28;20424;-61
2022/06/12 05:45:08;;;;;;;;;;;;;;;15.82;43.52;96166.41;5064575;28;20029;-60
2022/06/12 05:47:34;;;;;;;;;;;;;;;15.85;43.66;96160.63;5063880;28;20384;-62
2022/06/12 05:49:59;;;;;;;;;;;;;;;16.00;42.68;96157.81;5074279;28;19973;-61
2022/06/12 05:52:25;;;;;;;;;;;;;;;15.55;44.36;96168.06;5062550;28;19992;-61
2022/06/12 05:54:50;;;;;;;;;;;;;;;15.57;43.83;96166.06;5066649;28;19971;-61
2022/06/12 05:57:15;;;;;;;;;;;;;;;15.98;43.23;96159.84;5064259;28;19975;-60
2022/06/12 05:59:40;;;;;;;;;;;;;;;15.67;43.25;96166.50;5053479;28;19993;-60
2022/06/12 06:02:06;;;;;;;;;;;;;;;15.84;43.23;96156.28;5051364;28;20516;-60
2022/06/12 06:04:32;;;;;;;;;;;;;;;15.34;43.32;96162.53;5039861;28;20426;-61
2022/06/12 06:06:58;;;;;;;;;;;;;;;15.68;43.48;96168.19;5058045;28;20420;-61
2022/06/12 06:09:23;;;;;;;;;;;;;;;16.16;41.97;96171.94;5060562;28;19987;-59
2022/06/12 06:11:49;;;;;;;;;;;;;;;15.67;43.16;96161.13;5065922;28;19987;-62
2022/06/12 06:14:14;;;;;;;;;;;;;;;15.39;44.56;96169.19;5061353;28;20440;-61
2022/06/12 06:16:40;;;;;;;;;;;;;;;15.73;43.82;96160.38;5042866;28;19977;-60
2022/06/12 06:19:05;;;;;;;;;;;;;;;15.95;43.20;96164.81;5055401;28;20108;-61
2022/06/12 06:21:30;;;;;;;;;;;;;;;16.71;41.55;96164.88;5051516;28;20490;-60
2022/06/12 06:23:55;;;;;;;;;;;;;;;16.90;40.54;96166.75;5064133;28;20366;-61
2022/06/12 06:26:22;;;;;;;;;;;;;;;17.00;40.30;96163.66;5064872;28;19980;-62
2022/06/12 06:28:48;;;;;;;;;;;;;;;16.97;39.83;96166.78;5054602;28;19991;-60
2022/06/12 06:31:13;;;;;;;;;;;;;;;16.94;39.13;96169.88;5062396;28;19973;-62
2022/06/12 06:33:39;;;;;;;;;;;;;;;16.63;40.50;96173.97;5065283;28;19979;-61
2022/06/12 06:36:04;;;;;;;;;;;;;;;16.43;40.63;96174.75;5065660;28;19984;-61
2022/06/12 06:38:29;;;;;;;;;;;;;;;16.79;39.38;96169.25;5050138;28;20220;-61
2022/06/12 06:40:55;;;;;;;;;;;;;;;17.14;37.93;96169.09;5051998;28;20062;-62
2022/06/12 06:43:20;;;;;;;;;;;;;;;16.58;38.39;96179.94;5064962;28;19960;-62
2022/06/12 06:48:29;;;;;;;;;;;;;;;16.80;39.31;96171.72;5056821;28;20174;-61
2022/06/12 06:50:54;;;;;;;;;;;;;;;16.32;40.42;96172.59;5065020;28;20013;-61
2022/06/12 06:53:20;;;;;;;;;;;;;;;16.65;38.53;96171.91;5060531;28;19983;-63
2022/06/12 06:55:45;;;;;;;;;;;;;;;16.68;37.43;96179.56;5049527;28;20750;-60
2022/06/12 06:58:12;;;;;;;;;;;;;;;16.85;36.98;96174.63;5062794;28;20043;-62
2022/06/12 07:00:38;;;;;;;;;;;;;;;17.71;35.88;96174.00;5058497;28;19975;-62
2022/06/12 07:03:03;;;;;;;;;;;;;;;17.79;36.73;96171.06;5055149;28;19952;-61
2022/06/12 07:05:29;;;;;;;;;;;;;;;17.88;35.65;96178.97;5050526;28;20362;-61
2022/06/12 07:07:54;;;;;;;;;;;;;;;17.89;36.38;96177.94;5059865;28;19994;-61
2022/06/12 07:10:21;;;;;;;;;;;;;;;17.03;38.33;96173.19;5061711;28;20074;-62
2022/06/12 07:12:46;;;;;;;;;;;;;;;16.68;38.33;96171.50;5061023;28;19972;-61
2022/06/12 07:15:11;;;;;;;;;;;;;;;17.15;36.94;96174.28;5061456;28;19981;-60
2022/06/12 07:17:37;;;;;;;;;;;;;;;17.51;37.03;96180.25;5060976;28;19982;-62
2022/06/12 07:20:02;;;;;;;;;;;;;;;17.02;37.34;96177.75;5053371;28;19963;-63
2022/06/12 07:22:27;;;;;;;;;;;;;;;17.16;37.00;96185.84;5059507;28;19969;-61
2022/06/12 07:24:52;;;;;;;;;;;;;;;16.69;37.02;96178.50;5061637;28;20497;-58
2022/06/12 07:27:18;;;;;;;;;;;;;;;16.27;36.21;96186.63;5043987;28;19997;-63
2022/06/12 07:29:43;;;;;;;;;;;;;;;16.68;36.61;96176.88;5062723;28;20115;-60
2022/06/12 07:32:08;;;;;;;;;;;;;;;16.33;37.16;96179.63;5076439;28;20371;-62
2022/06/12 07:34:34;;;;;;;;;;;;;;;16.90;36.30;96171.34;5062675;28;19953;-63
2022/06/12 07:36:59;;;;;;;;;;;;;;;17.10;35.07;96167.81;5044347;28;19990;-62
2022/06/12 07:39:25;;;;;;;;;;;;;;;17.27;35.93;96163.69;5078639;28;19951;-61
2022/06/12 07:41:51;;;;;;;;;;;;;;;16.67;37.21;96174.38;5043987;28;19976;-63
2022/06/12 07:44:19;;;;;;;;;;;;;;;16.57;37.30;96177.47;5055992;28;20459;-62
2022/06/12 07:46:44;;;;;;;;;;;;;;;16.91;35.50;96178.34;5054107;28;19955;-62
2022/06/12 07:49:09;;;;;;;;;;;;;;;16.21;38.05;96176.69;5061326;28;19984;-62
2022/06/12 07:51:35;;;;;;;;;;;;;;;15.90;37.83;96186.06;5052742;28;20433;-62
2022/06/12 07:54:00;;;;;;;;;;;;;;;15.83;37.19;96186.00;5055402;28;19981;-61
2022/06/12 07:56:26;;;;;;;;;;;;;;;16.23;39.27;96183.53;5040172;28;20574;-62
2022/06/12 07:58:51;;;;;;;;;;;;;;;17.02;36.09;96183.13;5037121;28;19999;-63
2022/06/12 08:01:17;;;;;;;;;;;;;;;16.94;37.03;96182.50;5054822;28;19983;-62
2022/06/12 08:03:42;;;;;;;;;;;;;;;17.09;36.64;96209.19;5037057;28;20460;-61
2022/06/12 08:06:08;;;;;;;;;;;;;;;16.83;36.24;96189.31;5054045;28;19998;-62
2022/06/12 08:08:33;;;;;;;;;;;;;;;17.02;37.38;96198.44;5061272;28;19973;-61
2022/06/12 08:10:58;;;;;;;;;;;;;;;17.72;34.71;96196.38;5062108;28;19971;-60
2022/06/12 08:13:23;;;;;;;;;;;;;;;17.06;35.60;96202.34;5048259;28;20316;-62
2022/06/12 08:15:49;;;;;;;;;;;;;;;15.69;37.29;96193.16;5061811;28;20028;-62
2022/06/12 08:18:14;;;;;;;;;;;;;;;16.46;37.34;96198.50;5061942;28;19979;-62
2022/06/12 08:20:40;;;;;;;;;;;;;;;16.62;35.41;96196.47;5061523;28;19976;-63
2022/06/12 08:23:26;;;;;;;;;;;;;;;16.24;37.08;96193.25;5037445;28;19954;-63
2022/06/12 08:25:51;;;;;;;;;;;;;;;16.96;36.06;96193.88;5045274;28;20493;-61
2022/06/12 08:28:16;;;;;;;;;;;;;;;16.96;36.05;96193.88;5060701;28;19958;-61
2022/06/12 08:30:42;;;;;;;;;;;;;;;16.90;36.47;96196.34;5060903;28;20695;-63
2022/06/12 08:33:07;;;;;;;;;;;;;;;16.10;38.30;96207.63;5060133;28;20019;-63
2022/06/12 08:35:32;;;;;;;;;;;;;;;15.91;37.86;96193.91;5060157;28;19985;-61
2022/06/12 08:37:57;;;;;;;;;;;;;;;16.39;36.56;96197.69;5028909;28;20214;-61
2022/06/12 08:40:35;;;;;;;;;;;;;;;16.23;38.85;96204.19;5060459;28;20008;-63
2022/06/12 08:43:00;;;;;;;;;;;;;;;16.69;36.76;96200.03;5075612;28;19968;-62
2022/06/12 08:45:27;;;;;;;;;;;;;;;16.46;36.56;96193.13;5050086;28;19976;-62
2022/06/12 08:48:01;;;;;;;;;;;;;;;16.30;37.78;96194.31;5071795;28;20006;-62
2022/06/12 08:50:41;;;;;;;;;;;;;;;16.43;36.88;96196.25;5059699;28;20005;-64
2022/06/12 08:53:06;;;;;;;;;;;;;;;15.58;36.16;96197.22;5056678;28;19990;-64
2022/06/12 08:55:41;;;;;;;;;;;;;;;16.18;36.03;96195.91;5058396;28;19960;-61
2022/06/12 08:58:23;;;;;;;;;;;;;;;16.52;34.20;96196.88;5057399;28;20365;-62
2022/06/12 09:00:49;;;;;;;;;;;;;;;17.00;33.09;96182.50;5056449;28;20630;-61
2022/06/12 09:03:16;;;;;;;;;;;;;;;16.79;31.08;96183.50;5059680;28;20058;-61
2022/06/12 09:05:47;;;;;;;;;;;;;;;16.74;26.37;96173.38;5060051;28;20008;-61
2022/06/12 09:08:14;;;;;;;;;;;;;;;17.36;29.45;96172.41;5059379;28;20478;-62
2022/06/12 09:10:40;;;;;;;;;;;;;;;17.95;25.19;96162.78;5027236;28;19955;-62
2022/06/12 09:13:12;;;;;;;;;;;;;;;17.25;26.29;96171.16;5058791;28;20287;-63
2022/06/12 09:15:39;;;;;;;;;;;;;;;17.79;27.40;96160.31;5057161;28;19966;-63
2022/06/12 09:18:16;;;;;;;;;;;;;;;17.78;28.88;96158.66;5074364;28;19975;-62
2022/06/12 09:20:44;;;;;;;;;;;;;;;16.31;29.78;96157.53;5074515;28;19974;-63
2022/06/12 09:23:12;;;;;;;;;;;;;;;16.64;29.14;96152.28;5058728;28;20054;-62
2022/06/12 09:25:49;;;;;;;;;;;;;;;16.54;29.90;96153.66;5059203;28;20373;-61
2022/06/12 09:28:24;;;;;;;;;;;;;;;16.64;27.26;96154.13;5040717;28;20370;-62
2022/06/12 09:30:51;;;;;;;;;;;;;;;18.25;27.52;96149.63;5052547;28;20269;-62
2022/06/12 09:33:31;;;;;;;;;;;;;;;18.57;30.10;96148.84;5063572;28;20261;-62
2022/06/12 09:35:59;;;;;;;;;;;;;;;18.07;30.31;96153.00;5049829;28;19981;-62
2022/06/12 09:38:40;;;;;;;;;;;;;;;17.84;31.40;96156.19;5050144;28;20069;-63
2022/06/12 09:41:10;;;;;;;;;;;;;;;17.76;32.71;96152.69;5057678;28;20543;-62
2022/06/12 09:43:53;;;;;;;;;;;;;;;18.16;32.00;96148.22;5058257;28;20307;-63
2022/06/12 09:46:25;;;;;;;;;;;;;;;18.26;32.34;96136.97;5056128;28;20474;-62
2022/06/12 09:49:23;;;;;;;;;;;;;;;18.29;31.86;96153.53;5058253;28;20402;-63
2022/06/12 09:51:57;;;;;;;;;;;;;;;17.56;31.74;96147.31;5032665;28;19999;-63
2022/06/12 09:54:29;;;;;;;;;;;;;;;17.14;28.45;96140.31;5049641;28;20042;-63
2022/06/12 09:56:58;;;;;;;;;;;;;;;17.19;30.26;96146.94;5059069;28;20509;-62
2022/06/12 09:59:32;;;;;;;;;;;;;;;17.13;31.28;96151.28;5022885;28;20062;-62
2022/06/12 10:01:58;;;;;;;;;;;;;;;17.95;31.76;96135.88;5057973;28;20512;-63
2022/06/12 10:04:26;;;;;;;;;;;;;;;18.45;32.05;96135.22;5041343;28;20025;-62
2022/06/12 10:06:56;;;;;;;;;;;;;;;18.22;31.60;96139.25;5041941;28;19943;-63
2022/06/12 10:09:39;;;;;;;;;;;;;;;18.56;31.80;96131.03;5063885;28;20500;-62
2022/06/12 10:12:17;;;;;;;;;;;;;;;17.93;31.08;96133.38;5041706;28;20003;-64
2022/06/12 10:15:06;;;;;;;;;;;;;;;17.15;28.21;96133.09;5057689;28;19950;-63
2022/06/12 10:17:36;;;;;;;;;;;;;;;17.57;27.33;96140.91;5046470;28;19987;-62
2022/06/12 10:20:05;;;;;;;;;;;;;;;18.50;27.48;96132.72;5063102;28;19946;-64
2022/06/12 10:22:31;;;;;;;;;;;;;;;18.71;27.06;96128.03;5063935;28;19970;-62
2022/06/12 10:24:57;;;;;;;;;;;;;;;18.73;28.54;96130.53;5045653;28;19977;-63
2022/06/12 10:27:22;;;;;;;;;;;;;;;19.29;28.34;96125.31;5056724;28;20351;-62
2022/06/12 10:29:48;;;;;;;;;;;;;;;18.63;26.84;96126.41;5045017;28;20333;-63
2022/06/12 10:32:17;;;;;;;;;;;;;;;18.98;28.60;96127.00;5063140;28;19957;-63
2022/06/12 10:34:42;;;;;;;;;;;;;;;18.51;31.18;96122.72;5055054;28;20004;-63
2022/06/12 10:37:29;;;;;;;;;;;;;;;18.67;28.55;96121.44;5054136;28;19982;-62
2022/06/12 10:40:01;;;;;;;;;;;;;;;18.46;29.71;96122.56;5062656;28;19940;-63
2022/06/12 10:42:40;;;;;;;;;;;;;;;18.39;30.11;96122.63;5062804;28;20521;-63
2022/06/12 10:45:14;;;;;;;;;;;;;;;18.23;28.98;96127.47;5051859;28;20009;-63
2022/06/12 10:47:43;;;;;;;;;;;;;;;18.27;29.29;96117.91;5078402;28;20401;-62
2022/06/12 10:50:19;;;;;;;;;;;;;;;18.66;29.46;96131.38;5059777;28;19958;-62
2022/06/12 10:52:50;;;;;;;;;;;;;;;19.96;26.95;96121.13;5055748;28;20338;-63
2022/06/12 10:55:15;;;;;;;;;;;;;;;19.33;27.66;96124.66;5062740;28;20045;-62
2022/06/12 10:57:43;;;;;;;;;;;;;;;18.69;28.67;96122.03;5063306;28;20506;-61
2022/06/12 11:00:18;;;;;;;;;;;;;;;19.23;29.45;96124.31;5036310;28;19941;-64
2022/06/12 11:02:47;;;;;;;;;;;;;;;18.20;26.31;96127.88;5066579;28;20410;-64
2022/06/12 11:05:24;;;;;;;;;;;;;;;17.24;28.60;96122.94;5063531;28;19994;-63
2022/06/12 11:07:58;;;;;;;;;;;;;;;17.20;27.64;96129.78;5064013;28;20442;-63
2022/06/12 11:10:32;;;;;;;;;;;;;;;17.99;24.84;96129.00;5063504;28;20345;-64
2022/06/12 11:13:16;;;;;;;;;;;;;;;17.85;25.23;96115.56;5044944;28;19980;-64
2022/06/12 11:15:43;;;;;;;;;;;;;;;18.00;26.91;96125.25;5061620;28;20480;-64
2022/06/12 11:18:27;;;;;;;;;;;;;;;18.37;24.52;96116.59;5061905;28;20003;-64
2022/06/12 11:21:02;;;;;;;;;;;;;;;18.92;24.79;96113.38;5061790;28;20419;-64
2022/06/12 11:23:46;;;;;;;;;;;;;;;18.07;28.00;96111.75;5061212;28;19947;-64
2022/06/12 11:26:30;;;;;;;;;;;;;;;17.95;26.71;96120.50;5061961;28;20388;-64
2022/06/12 11:29:04;;;;;;;;;;;;;;;17.76;27.49;96106.91;5062595;28;20533;-64
2022/06/12 11:31:41;;;;;;;;;;;;;;;17.36;28.73;96106.97;5060857;28;20435;-64
2022/06/12 11:34:22;;;;;;;;;;;;;;;17.46;27.86;96117.31;5053817;28;20352;-63
2022/06/12 11:36:47;;;;;;;;;;;;;;;18.12;27.62;96104.69;5042297;28;20345;-65
2022/06/12 11:39:19;;;;;;;;;;;;;;;17.97;27.78;96110.38;5061498;28;19956;-64
2022/06/12 11:41:53;;;;;;;;;;;;;;;18.47;28.42;96095.41;5058653;28;20012;-65
2022/06/12 11:44:24;;;;;;;;;;;;;;;18.94;27.37;96099.66;5058829;28;20341;-64
2022/06/12 11:47:05;;;;;;;;;;;;;;;18.72;28.23;96086.53;5054310;28;19946;-65
2022/06/12 11:49:35;;;;;;;;;;;;;;;19.44;26.26;96093.41;5049589;28;20001;-64
2022/06/12 11:52:13;;;;;;;;;;;;;;;19.37;29.68;96089.13;5032161;28;20067;-65
2022/06/12 11:54:57;;;;;;;;;;;;;;;19.20;28.54;96093.19;5043371;28;20516;-64
2022/06/12 11:57:27;;;;;;;;;;;;;;;19.33;29.69;96104.94;5059642;28;19981;-65
2022/06/12 11:59:58;;;;;;;;;;;;;;;19.92;26.68;96098.28;5056839;28;19946;-64
2022/06/12 12:02:23;;;;;;;;;;;;;;;20.42;29.49;96086.44;5060683;28;20722;-65
2022/06/12 12:04:54;;;;;;;;;;;;;;;19.33;29.58;96102.25;5058866;28;19976;-65
2022/06/12 12:07:38;;;;;;;;;;;;;;;19.55;28.52;96091.03;5042242;28;20252;-65
2022/06/12 12:10:07;;;;;;;;;;;;;;;20.01;30.06;96083.44;5058696;28;20351;-65
2022/06/12 12:12:34;;;;;;;;;;;;;;;20.80;26.80;96068.19;5060176;28;19974;-64
2022/06/12 12:15:00;;;;;;;;;;;;;;;21.16;26.89;96072.81;5060495;28;20055;-62
2022/06/12 12:17:29;;;;;;;;;;;;;;;20.74;27.48;96071.84;5038096;28;20051;-63
2022/06/12 12:19:59;;;;;;;;;;;;;;;21.33;27.81;96081.06;5062011;28;19945;-63
2022/06/12 12:22:43;;;;;;;;;;;;;;;20.29;28.98;96073.13;5042881;28;20289;-63
2022/06/12 12:25:15;;;;;;;;;;;;;;;20.09;28.64;96066.91;5061358;28;20080;-62
2022/06/12 12:27:42;;;;;;;;;;;;;;;20.77;27.81;96062.44;5061839;28;19951;-62
2022/06/12 12:30:22;;;;;;;;;;;;;;;20.61;29.38;96068.25;5042763;28;19965;-63
2022/06/12 12:32:48;;;;;;;;;;;;;;;20.76;29.84;96058.91;5049163;28;19969;-63
2022/06/12 12:41:11;;;;;;;;;;;;;;;20.61;28.89;96062.84;5037845;28;20448;-62
2022/06/12 12:43:26;;;;;;;;;;;;;;;19.20;29.62;96052.72;5061641;28;19960;-63
2022/06/12 12:46:01;;;;;;;;;;;;;;;19.43;31.32;96053.97;5061526;28;19970;-63
2022/06/12 12:48:36;;;;;;;;;;;;;;;19.82;30.66;96042.91;5042832;28;19973;-63
2022/06/12 12:51:02;;;;;;;;;;;;;;;19.94;30.45;96050.25;5060579;28;20081;-64
2022/06/12 12:53:31;;;;;;;;;;;;;;;19.80;29.66;96046.91;5060482;28;19976;-63
2022/06/12 12:56:04;;;;;;;;;;;;;;;19.84;30.27;96046.22;5038345;28;20415;-64
2022/06/12 12:58:30;;;;;;;;;;;;;;;19.41;32.51;96042.56;5049808;28;20549;-63
2022/06/12 13:01:02;;;;;;;;;;;;;;;20.05;31.52;96044.09;5031578;28;19967;-64
2022/06/12 13:03:31;;;;;;;;;;;;;;;20.55;30.04;96052.13;5058528;28;19937;-64
2022/06/12 13:05:57;;;;;;;;;;;;;;;20.37;29.45;96045.75;5060093;28;20545;-63
2022/06/12 13:08:28;;;;;;;;;;;;;;;20.40;28.56;96055.28;5059634;28;20052;-64
2022/06/12 13:10:56;;;;;;;;;;;;;;;20.75;28.04;96051.84;5060698;28;20447;-64
2022/06/12 13:13:24;;;;;;;;;;;;;;;20.92;27.51;96041.16;5053617;28;19968;-63